Time;durP1;ratioP1;P1;durP2;ratioP2;P2;SDS_P1;SDS_P2;PMS_P1;PMS_P2;Temp;Humidity;BMP_temperature;BMP_pressure;BME280_temperature;BME280_humidity;BME280_pressure;Samples;Min_cycle;Max_cycle;Signal;HPM_P1;HPM_P2
2022/10/29 00:01:42;;;;;;;11.40;7.30;;;11.10;99.90;;;;;;5061857;28;20507;-60
2022/10/29 00:04:07;;;;;;;15.37;8.63;;;11.10;99.90;;;;;;5066881;28;20591;-60
2022/10/29 00:06:33;;;;;;;19.83;8.40;;;11.20;99.90;;;;;;5075924;28;20165;-60
2022/10/29 00:08:58;;;;;;;17.93;7.70;;;11.10;99.90;;;;;;5075736;28;20517;-60
2022/10/29 00:11:24;;;;;;;13.67;8.30;;;11.10;99.90;;;;;;5069958;28;20167;-60
2022/10/29 00:13:56;;;;;;;12.07;7.90;;;11.10;99.90;;;;;;5085608;28;20227;-60
2022/10/29 00:16:24;;;;;;;18.63;8.10;;;11.20;99.90;;;;;;5070947;28;20213;-60
2022/10/29 00:18:50;;;;;;;16.33;7.50;;;11.20;99.90;;;;;;5068620;28;20428;-59
2022/10/29 00:21:18;;;;;;;12.70;7.93;;;11.20;99.90;;;;;;5065160;28;20424;-60
2022/10/29 00:23:45;;;;;;;11.93;7.70;;;11.20;99.90;;;;;;5067634;28;20688;-60
2022/10/29 00:26:11;;;;;;;18.23;8.43;;;11.20;99.90;;;;;;5063693;28;20471;-60
2022/10/29 00:28:37;;;;;;;15.13;8.17;;;11.10;99.90;;;;;;5063625;28;20437;-61
2022/10/29 00:31:09;;;;;;;20.33;8.20;;;11.10;99.90;;;;;;5068386;28;20436;-60
2022/10/29 00:33:34;;;;;;;10.33;7.17;;;11.20;99.90;;;;;;5062697;28;20467;-60
2022/10/29 00:36:11;;;;;;;10.43;7.30;;;11.20;99.90;;;;;;5059035;28;20428;-60
2022/10/29 00:38:37;;;;;;;14.03;7.30;;;11.20;99.90;;;;;;5053960;28;20200;-59
2022/10/29 00:41:04;;;;;;;16.00;6.63;;;11.20;99.90;;;;;;5067647;28;20527;-61
2022/10/29 00:43:33;;;;;;;12.87;7.63;;;11.20;99.90;;;;;;5063949;28;20198;-60
2022/10/29 00:46:06;;;;;;;13.63;7.27;;;11.20;99.90;;;;;;5061128;28;20464;-60
2022/10/29 00:48:36;;;;;;;14.40;7.77;;;11.20;99.90;;;;;;5068468;28;20498;-59
2022/10/29 00:51:05;;;;;;;16.03;7.67;;;11.10;99.90;;;;;;5062857;28;20468;-59
2022/10/29 00:53:36;;;;;;;15.37;7.73;;;11.10;99.90;;;;;;5062066;28;20463;-59
2022/10/29 00:56:02;;;;;;;14.00;7.40;;;11.10;99.90;;;;;;5060454;28;20413;-60
2022/10/29 00:58:28;;;;;;;13.00;6.90;;;11.20;99.90;;;;;;5058665;28;20439;-60
2022/10/29 01:00:54;;;;;;;11.80;7.33;;;11.20;99.90;;;;;;5066576;28;20438;-60
2022/10/29 01:03:19;;;;;;;11.23;6.80;;;11.20;99.90;;;;;;5060727;28;20214;-60
2022/10/29 01:05:46;;;;;;;10.70;6.80;;;11.20;99.90;;;;;;5063194;28;20178;-60
2022/10/29 01:08:13;;;;;;;14.23;6.83;;;11.20;99.90;;;;;;5056200;28;20740;-59
2022/10/29 01:11:03;;;;;;;9.57;6.20;;;11.20;99.90;;;;;;5067111;28;20463;-60
2022/10/29 01:13:40;;;;;;;13.53;7.40;;;11.20;99.90;;;;;;5065736;28;20464;-62
2022/10/29 01:16:24;;;;;;;13.73;6.20;;;11.20;99.90;;;;;;5068395;28;20436;-60
2022/10/29 01:19:17;;;;;;;11.97;6.63;;;11.20;99.90;;;;;;5065686;28;20443;-61
2022/10/29 01:21:46;;;;;;;14.93;5.73;;;11.20;99.90;;;;;;5065480;28;20493;-60
2022/10/29 01:24:30;;;;;;;12.33;5.63;;;11.20;99.90;;;;;;5063402;28;20467;-60
2022/10/29 01:27:31;;;;;;;8.90;5.47;;;11.20;99.90;;;;;;5061429;28;20456;-60
2022/10/29 01:30:20;;;;;;;11.53;5.30;;;11.20;99.90;;;;;;5063707;28;20432;-60
2022/10/29 01:33:00;;;;;;;10.33;5.53;;;11.20;99.90;;;;;;5065050;28;20579;-61
2022/10/29 01:35:44;;;;;;;7.40;5.63;;;11.20;99.90;;;;;;5064557;28;20519;-60
2022/10/29 01:38:25;;;;;;;9.33;5.50;;;11.20;99.90;;;;;;5059686;28;20443;-60
2022/10/29 01:40:59;;;;;;;9.70;5.30;;;11.20;99.90;;;;;;5066849;28;20471;-60
2022/10/29 01:43:50;;;;;;;11.73;5.87;;;11.20;99.90;;;;;;5063446;28;20467;-60
2022/10/29 01:46:25;;;;;;;18.20;5.37;;;11.20;99.90;;;;;;5064356;28;20906;-61
2022/10/29 01:48:56;;;;;;;9.20;5.80;;;11.20;99.90;;;;;;5059207;28;21042;-61
2022/10/29 01:51:27;;;;;;;8.53;5.50;;;11.20;99.90;;;;;;5061885;28;20966;-59
2022/10/29 01:53:53;;;;;;;6.10;5.30;;;11.20;99.90;;;;;;5057933;28;20433;-60
2022/10/29 01:56:19;;;;;;;13.03;6.00;;;11.20;99.90;;;;;;5068371;28;20516;-60
2022/10/29 01:58:50;;;;;;;7.13;5.37;;;11.20;99.90;;;;;;5060251;28;20515;-61
2022/10/29 02:01:27;;;;;;;11.43;5.70;;;11.20;99.90;;;;;;5061878;28;20328;-60
2022/10/29 02:04:31;;;;;;;9.97;5.70;;;11.20;99.90;;;;;;5067087;28;20819;-60
2022/10/29 02:07:14;;;;;;;12.93;5.97;;;11.20;99.90;;;;;;5061484;28;21011;-60
2022/10/29 02:09:40;;;;;;;11.90;5.87;;;11.20;99.90;;;;;;5054261;28;20456;-61
2022/10/29 02:12:29;;;;;;;9.37;6.13;;;11.20;99.90;;;;;;5067463;28;20501;-60
2022/10/29 02:15:03;;;;;;;10.43;5.40;;;11.20;99.90;;;;;;5062809;28;20178;-60
2022/10/29 02:17:31;;;;;;;15.67;5.63;;;11.20;99.90;;;;;;5060782;28;20440;-60
2022/10/29 02:19:56;;;;;;;15.07;5.87;;;11.20;99.90;;;;;;5067199;28;20469;-60
2022/10/29 02:22:22;;;;;;;9.83;5.73;;;11.30;99.90;;;;;;5069804;28;20435;-60
2022/10/29 02:24:48;;;;;;;11.93;5.70;;;11.30;99.90;;;;;;5075646;28;20654;-60
2022/10/29 02:27:13;;;;;;;16.20;5.50;;;11.30;99.90;;;;;;5064760;28;20186;-60
2022/10/29 02:29:39;;;;;;;10.07;5.90;;;11.30;99.90;;;;;;5066740;28;20202;-61
2022/10/29 02:32:05;;;;;;;9.43;5.53;;;11.30;99.90;;;;;;5068143;28;20699;-60
2022/10/29 02:34:30;;;;;;;17.00;5.90;;;11.30;99.90;;;;;;5065358;28;20186;-60
2022/10/29 02:36:56;;;;;;;12.60;5.10;;;11.30;99.90;;;;;;5064740;28;20260;-60
2022/10/29 02:39:21;;;;;;;24.93;5.93;;;11.30;99.90;;;;;;5057714;28;20629;-60
2022/10/29 02:41:47;;;;;;;9.43;5.93;;;11.30;99.90;;;;;;5058074;28;20207;-60
2022/10/29 02:44:12;;;;;;;8.60;5.70;;;11.30;99.90;;;;;;5051490;28;20253;-60
2022/10/29 02:46:39;;;;;;;8.50;5.40;;;11.30;99.90;;;;;;5064824;28;20179;-60
2022/10/29 02:49:05;;;;;;;7.40;5.50;;;11.30;99.90;;;;;;5067429;28;20166;-60
2022/10/29 02:51:31;;;;;;;10.10;5.47;;;11.30;99.90;;;;;;5060378;28;20499;-60
2022/10/29 02:53:57;;;;;;;11.83;5.70;;;11.30;99.90;;;;;;5049084;28;20410;-61
2022/10/29 02:56:23;;;;;;;12.57;6.50;;;11.30;99.90;;;;;;5061628;28;20278;-61
2022/10/29 02:58:48;;;;;;;14.13;5.63;;;11.20;99.90;;;;;;5068533;28;20171;-60
2022/10/29 03:01:14;;;;;;;11.63;6.10;;;11.20;99.90;;;;;;5059507;28;20180;-59
2022/10/29 03:03:39;;;;;;;11.60;6.00;;;11.20;99.90;;;;;;5057877;28;20202;-59
2022/10/29 03:06:15;;;;;;;11.93;5.87;;;11.20;99.90;;;;;;5062046;28;20802;-60
2022/10/29 03:08:41;;;;;;;11.73;5.00;;;11.20;99.90;;;;;;5051937;28;20167;-61
2022/10/29 03:11:06;;;;;;;12.40;5.83;;;11.20;99.90;;;;;;5067043;28;20496;-61
2022/10/29 03:13:32;;;;;;;9.70;4.77;;;11.10;99.90;;;;;;5059372;28;20289;-60
2022/10/29 03:15:58;;;;;;;13.13;6.50;;;11.10;99.90;;;;;;5053967;28;20186;-60
2022/10/29 03:18:23;;;;;;;11.27;5.80;;;11.10;99.90;;;;;;5063408;28;20247;-60
2022/10/29 03:20:49;;;;;;;9.10;5.57;;;11.00;99.90;;;;;;5060152;28;20181;-61
2022/10/29 03:23:14;;;;;;;9.70;6.47;;;11.00;99.90;;;;;;5057263;28;20218;-60
2022/10/29 03:25:40;;;;;;;11.83;5.30;;;11.00;99.90;;;;;;5067832;28;20182;-60
2022/10/29 03:28:06;;;;;;;12.40;6.40;;;10.90;99.90;;;;;;5060286;28;20171;-60
2022/10/29 03:30:32;;;;;;;10.73;5.53;;;10.90;99.90;;;;;;5065782;28;20648;-61
2022/10/29 03:32:57;;;;;;;11.10;6.10;;;10.90;99.90;;;;;;5059000;28;20195;-60
2022/10/29 03:35:23;;;;;;;10.10;6.57;;;10.80;99.90;;;;;;5067546;28;20850;-60
2022/10/29 03:37:49;;;;;;;24.93;5.63;;;10.80;99.90;;;;;;5053082;28;20249;-61
2022/10/29 03:40:16;;;;;;;11.00;5.30;;;10.70;99.90;;;;;;5062281;28;20185;-60
2022/10/29 03:42:41;;;;;;;12.07;5.90;;;10.70;99.90;;;;;;5059753;28;20476;-60
2022/10/29 03:45:09;;;;;;;16.33;5.27;;;10.70;99.90;;;;;;5057870;28;20433;-60
2022/10/29 03:47:35;;;;;;;6.40;4.97;;;10.60;99.90;;;;;;5059624;28;20229;-60
2022/10/29 03:50:01;;;;;;;7.90;5.23;;;10.60;99.90;;;;;;5063257;28;20428;-62
2022/10/29 03:52:27;;;;;;;10.20;5.50;;;10.60;99.90;;;;;;5060051;28;20501;-60
2022/10/29 03:54:52;;;;;;;10.17;6.07;;;10.60;99.90;;;;;;5062406;28;20440;-61
2022/10/29 03:57:18;;;;;;;9.07;5.10;;;10.60;99.90;;;;;;5065085;28;20512;-59
2022/10/29 03:59:44;;;;;;;6.87;5.43;;;10.50;99.90;;;;;;5061800;28;20203;-62
2022/10/29 04:02:11;;;;;;;12.10;5.80;;;10.50;99.90;;;;;;5059508;28;21054;-60
2022/10/29 04:04:37;;;;;;;17.47;5.23;;;10.50;99.90;;;;;;5068782;28;20218;-61
2022/10/29 04:07:03;;;;;;;16.97;6.70;;;10.50;99.90;;;;;;5052468;28;20538;-62
2022/10/29 04:09:28;;;;;;;9.23;5.80;;;10.50;99.90;;;;;;5065749;28;20955;-60
2022/10/29 04:11:54;;;;;;;13.10;5.87;;;10.50;99.90;;;;;;5063278;28;20198;-60
2022/10/29 04:14:20;;;;;;;13.50;5.87;;;10.50;99.90;;;;;;5059960;28;20182;-60
2022/10/29 04:16:45;;;;;;;9.03;6.00;;;10.50;99.90;;;;;;5053784;28;20190;-60
2022/10/29 04:19:11;;;;;;;9.50;5.73;;;10.50;99.90;;;;;;5096113;22;20559;-54
2022/10/29 04:21:36;;;;;;;15.63;6.43;;;10.40;99.90;;;;;;5031589;28;20290;-59
2022/10/29 04:24:02;;;;;;;14.30;6.80;;;10.40;99.90;;;;;;5019184;28;20203;-57
2022/10/29 04:26:28;;;;;;;13.80;6.33;;;10.40;99.90;;;;;;5039482;28;20169;-56
2022/10/29 04:28:53;;;;;;;14.20;6.70;;;10.40;99.90;;;;;;5029530;28;20172;-56
2022/10/29 04:31:20;;;;;;;10.60;5.60;;;10.40;99.90;;;;;;5026372;28;20192;-57
2022/10/29 04:33:45;;;;;;;11.20;6.30;;;10.40;99.90;;;;;;5029817;28;20172;-55
2022/10/29 04:36:11;;;;;;;13.30;6.43;;;10.40;99.90;;;;;;5023180;28;21274;-58
2022/10/29 04:38:37;;;;;;;17.03;7.27;;;10.30;99.90;;;;;;5033690;28;20621;-57
2022/10/29 04:41:03;;;;;;;14.10;6.77;;;10.30;99.90;;;;;;5037598;28;20199;-59
2022/10/29 04:43:29;;;;;;;15.53;6.37;;;10.30;99.90;;;;;;5026571;28;21014;-56
2022/10/29 04:45:57;;;;;;;8.27;5.50;;;10.30;99.90;;;;;;5031732;28;20202;-58
2022/10/29 04:48:24;;;;;;;14.03;6.40;;;10.20;99.90;;;;;;5035977;28;20438;-55
2022/10/29 04:50:49;;;;;;;12.40;5.90;;;10.20;99.90;;;;;;5030373;28;20479;-61
2022/10/29 04:53:16;;;;;;;10.30;5.90;;;10.10;99.90;;;;;;5033812;28;20438;-56
2022/10/29 04:55:42;;;;;;;13.23;6.43;;;10.10;99.90;;;;;;5034760;28;20218;-61
2022/10/29 04:58:18;;;;;;;7.70;5.40;;;10.00;99.90;;;;;;5023202;28;20449;-59
2022/10/29 05:00:44;;;;;;;11.80;6.00;;;10.00;99.90;;;;;;5025126;28;20457;-59
2022/10/29 05:03:10;;;;;;;10.27;6.23;;;10.00;99.90;;;;;;5024857;28;20460;-59
2022/10/29 05:05:37;;;;;;;18.57;6.93;;;10.00;99.90;;;;;;5019880;28;20553;-57
2022/10/29 05:08:04;;;;;;;12.63;5.90;;;10.00;99.90;;;;;;5021386;28;20257;-60
2022/10/29 05:10:35;;;;;;;15.87;5.93;;;10.00;99.90;;;;;;5027381;28;20450;-57
2022/10/29 05:13:10;;;;;;;11.83;6.23;;;10.00;99.90;;;;;;5029572;28;20437;-56
2022/10/29 05:15:37;;;;;;;12.93;6.77;;;10.00;99.90;;;;;;5024012;28;20806;-56
2022/10/29 05:18:03;;;;;;;10.20;5.60;;;10.00;99.90;;;;;;5029906;28;20422;-59
2022/10/29 05:20:30;;;;;;;13.30;6.23;;;10.00;99.90;;;;;;5028845;28;20492;-57
2022/10/29 05:23:04;;;;;;;9.33;5.40;;;9.90;99.90;;;;;;5021608;28;20455;-56
2022/10/29 05:25:31;;;;;;;13.47;6.03;;;9.90;99.90;;;;;;5022733;28;20528;-60
2022/10/29 05:28:19;;;;;;;9.10;5.80;;;9.90;99.90;;;;;;5023201;28;20431;-56
2022/10/29 05:30:46;;;;;;;11.90;7.10;;;9.90;99.90;;;;;;5023289;28;20450;-58
2022/10/29 05:33:18;;;;;;;15.83;5.93;;;9.90;99.90;;;;;;5024045;28;20446;-61
2022/10/29 05:35:44;;;;;;;12.73;5.80;;;9.90;99.90;;;;;;5026237;28;20587;-62
2022/10/29 05:38:11;;;;;;;15.53;7.00;;;9.90;99.90;;;;;;5031037;28;20567;-58
2022/10/29 05:40:38;;;;;;;16.87;6.00;;;9.90;99.90;;;;;;5030773;28;20543;-57
2022/10/29 05:43:03;;;;;;;22.30;7.57;;;9.80;99.90;;;;;;5023172;28;20462;-57
2022/10/29 05:45:29;;;;;;;9.73;6.70;;;9.80;99.90;;;;;;5027796;28;20434;-56
2022/10/29 05:48:00;;;;;;;69.90;8.20;;;9.80;99.90;;;;;;5021559;28;20172;-61
2022/10/29 05:50:26;;;;;;;25.20;6.20;;;9.80;99.90;;;;;;5029602;28;20188;-56
2022/10/29 05:52:56;;;;;;;17.33;6.00;;;9.80;99.90;;;;;;5021336;28;20423;-61
2022/10/29 05:55:22;;;;;;;123.80;9.37;;;9.80;99.90;;;;;;5027369;28;22405;-56
2022/10/29 05:57:48;;;;;;;59.43;7.30;;;9.80;99.90;;;;;;5023551;28;20529;-58
2022/10/29 06:00:14;;;;;;;59.10;8.00;;;9.80;99.90;;;;;;5026117;28;20542;-58
2022/10/29 06:02:43;;;;;;;39.47;6.53;;;9.80;99.90;;;;;;5015113;28;20207;-56
2022/10/29 06:05:08;;;;;;;38.10;8.13;;;9.80;99.90;;;;;;5029165;28;20176;-59
2022/10/29 06:07:34;;;;;;;36.90;7.10;;;9.80;99.90;;;;;;5024971;28;20419;-55
2022/10/29 06:09:59;;;;;;;56.03;7.40;;;9.80;99.90;;;;;;5022537;28;20202;-55
2022/10/29 06:12:25;;;;;;;23.93;5.33;;;9.80;99.90;;;;;;5021217;28;20251;-59
2022/10/29 06:14:51;;;;;;;12.13;5.77;;;9.70;99.90;;;;;;5031437;28;20209;-58
2022/10/29 06:17:16;;;;;;;9.50;5.00;;;9.70;99.90;;;;;;5024722;28;20187;-57
2022/10/29 06:19:42;;;;;;;31.40;6.00;;;9.70;99.90;;;;;;5024286;28;20208;-57
2022/10/29 06:22:08;;;;;;;15.53;6.30;;;9.80;99.90;;;;;;5032483;28;20172;-59
2022/10/29 06:24:33;;;;;;;48.93;6.43;;;9.80;99.90;;;;;;5023822;28;20590;-59
2022/10/29 06:26:59;;;;;;;24.60;5.83;;;9.80;99.90;;;;;;5030037;28;20168;-58
2022/10/29 06:29:24;;;;;;;22.73;6.03;;;9.80;99.90;;;;;;5021035;28;20179;-57
2022/10/29 06:31:50;;;;;;;40.93;6.70;;;9.80;99.90;;;;;;5031480;28;20615;-57
2022/10/29 06:34:15;;;;;;;91.43;8.90;;;9.80;99.90;;;;;;5038493;28;20183;-54
2022/10/29 06:36:41;;;;;;;19.43;5.73;;;9.90;99.90;;;;;;5027836;28;20354;-57
2022/10/29 06:39:07;;;;;;;10.60;5.70;;;9.90;99.90;;;;;;5022467;28;20559;-55
2022/10/29 06:41:32;;;;;;;7.50;4.80;;;9.90;99.90;;;;;;5021023;28;20236;-58
2022/10/29 06:43:58;;;;;;;10.70;5.87;;;9.90;99.90;;;;;;5023695;28;20206;-57
2022/10/29 06:46:24;;;;;;;6.27;5.23;;;9.90;99.90;;;;;;5023334;28;20176;-59
2022/10/29 06:48:49;;;;;;;13.70;5.57;;;9.80;99.90;;;;;;5021698;28;20283;-56
2022/10/29 06:51:15;;;;;;;5.63;5.00;;;9.80;99.90;;;;;;5012938;28;20203;-57
2022/10/29 06:53:40;;;;;;;10.00;4.70;;;9.70;99.90;;;;;;5019254;28;20180;-57
2022/10/29 06:56:06;;;;;;;16.60;5.50;;;9.80;99.90;;;;;;5013797;28;20450;-56
2022/10/29 06:58:32;;;;;;;8.03;4.33;;;9.80;99.90;;;;;;5015885;28;20184;-56
2022/10/29 07:00:59;;;;;;;9.90;4.70;;;9.80;99.90;;;;;;5014538;28;20248;-56
2022/10/29 07:03:25;;;;;;;19.67;5.37;;;9.80;99.90;;;;;;5016592;28;20199;-57
2022/10/29 07:05:55;;;;;;;24.13;5.57;;;9.80;99.90;;;;;;5006528;28;20492;-60
2022/10/29 07:08:21;;;;;;;14.13;4.50;;;9.80;99.90;;;;;;5016276;28;20168;-56
2022/10/29 07:10:50;;;;;;;9.70;4.43;;;9.80;99.90;;;;;;5014644;28;20451;-57
2022/10/29 07:13:15;;;;;;;10.20;5.17;;;9.80;99.90;;;;;;5020526;28;20187;-59
2022/10/29 07:15:41;;;;;;;10.60;4.87;;;9.80;99.90;;;;;;5022044;28;20434;-56
2022/10/29 07:18:08;;;;;;;6.57;5.70;;;9.90;99.90;;;;;;5025511;28;20218;-59
2022/10/29 07:20:36;;;;;;;7.90;5.43;;;9.90;99.90;;;;;;5024024;28;20298;-59
2022/10/29 07:23:02;;;;;;;7.23;5.50;;;9.80;99.90;;;;;;5022497;28;20466;-56
2022/10/29 07:25:29;;;;;;;8.03;5.33;;;9.90;99.90;;;;;;5025437;28;20457;-60
2022/10/29 07:28:00;;;;;;;13.10;5.13;;;9.90;99.90;;;;;;5022525;28;20454;-58
2022/10/29 07:30:26;;;;;;;7.10;5.60;;;10.00;99.90;;;;;;5029087;28;20454;-57
2022/10/29 07:32:52;;;;;;;5.67;4.50;;;10.00;99.90;;;;;;5013916;28;20435;-58
2022/10/29 07:35:17;;;;;;;6.83;5.10;;;10.00;99.90;;;;;;5022047;28;20180;-61
2022/10/29 07:37:43;;;;;;;5.47;4.33;;;10.10;99.90;;;;;;5016960;28;20715;-57
2022/10/29 07:40:10;;;;;;;6.30;4.40;;;10.10;99.90;;;;;;5019477;28;20199;-59
2022/10/29 07:42:35;;;;;;;6.30;4.53;;;10.10;99.90;;;;;;5012599;28;20184;-56
2022/10/29 07:45:01;;;;;;;6.73;4.30;;;10.20;99.90;;;;;;5015492;28;21548;-57
2022/10/29 07:47:27;;;;;;;6.80;5.00;;;10.20;99.90;;;;;;5007877;28;20272;-58
2022/10/29 07:49:52;;;;;;;6.63;5.40;;;10.30;99.90;;;;;;5017484;28;20195;-58
2022/10/29 07:52:18;;;;;;;7.37;5.37;;;10.30;99.90;;;;;;5017898;28;20222;-57
2022/10/29 07:54:43;;;;;;;5.87;4.80;;;10.30;99.90;;;;;;5020526;28;20242;-55
2022/10/29 07:57:09;;;;;;;5.40;4.80;;;10.40;99.90;;;;;;5022005;28;20187;-56
2022/10/29 07:59:35;;;;;;;7.87;5.40;;;10.40;99.90;;;;;;5022876;28;20330;-56
2022/10/29 08:02:01;;;;;;;9.20;4.90;;;10.50;99.90;;;;;;5011875;28;20675;-58
2022/10/29 08:04:26;;;;;;;6.70;4.80;;;10.60;99.90;;;;;;5023940;28;20219;-57
2022/10/29 08:06:52;;;;;;;16.83;6.07;;;10.70;99.90;;;;;;5018143;28;20254;-56
2022/10/29 08:09:17;;;;;;;10.93;5.20;;;10.70;99.90;;;;;;5030540;28;20264;-57
2022/10/29 08:11:43;;;;;;;8.67;5.77;;;10.80;99.90;;;;;;5031730;28;20199;-57
2022/10/29 08:14:09;;;;;;;10.07;6.37;;;10.90;99.90;;;;;;5030517;28;20239;-57
2022/10/29 08:16:34;;;;;;;17.57;5.13;;;11.00;99.90;;;;;;5028844;28;20598;-56
2022/10/29 08:19:00;;;;;;;10.30;6.20;;;11.10;99.90;;;;;;5038561;28;20184;-59
2022/10/29 08:21:26;;;;;;;9.87;6.17;;;11.20;99.90;;;;;;5014787;28;20307;-56
2022/10/29 08:23:52;;;;;;;11.00;5.57;;;11.30;99.90;;;;;;5027599;28;20556;-56
2022/10/29 08:26:19;;;;;;;10.53;5.60;;;11.40;99.90;;;;;;5036831;28;20264;-59
2022/10/29 08:28:45;;;;;;;16.33;5.67;;;11.50;99.90;;;;;;5029736;28;20693;-58
2022/10/29 08:31:10;;;;;;;13.23;5.70;;;11.60;99.90;;;;;;5026999;28;20454;-57
2022/10/29 08:33:36;;;;;;;16.47;5.93;;;11.70;99.90;;;;;;5029831;28;20183;-58
2022/10/29 08:36:01;;;;;;;9.50;5.50;;;11.80;99.90;;;;;;5028321;28;20215;-57
2022/10/29 08:38:27;;;;;;;13.40;5.77;;;11.80;99.90;;;;;;5028450;28;20187;-57
2022/10/29 08:41:11;;;;;;;10.60;6.00;;;12.00;99.90;;;;;;5035108;28;20195;-57
2022/10/29 08:44:01;;;;;;;10.83;5.37;;;12.10;99.90;;;;;;5037197;28;20218;-58
2022/10/29 08:46:48;;;;;;;9.00;5.67;;;12.10;99.90;;;;;;5021713;28;20438;-60
2022/10/29 08:49:36;;;;;;;15.17;6.10;;;12.30;99.90;;;;;;5029078;28;20522;-58
2022/10/29 08:52:15;;;;;;;13.90;5.50;;;12.40;99.90;;;;;;5030689;28;20452;-58
2022/10/29 08:54:46;;;;;;;16.10;5.83;;;12.50;99.90;;;;;;5039403;28;20769;-57
2022/10/29 08:57:17;;;;;;;19.20;5.50;;;12.70;99.90;;;;;;5016444;28;20427;-57
2022/10/29 09:00:11;;;;;;;10.00;5.90;;;12.80;99.90;;;;;;5022570;28;20469;-58
2022/10/29 09:02:39;;;;;;;18.43;5.90;;;12.90;99.90;;;;;;5036244;28;20442;-57
2022/10/29 09:05:05;;;;;;;17.20;5.70;;;13.00;99.90;;;;;;5034767;28;20930;-57
2022/10/29 09:07:33;;;;;;;11.60;5.50;;;13.20;99.90;;;;;;5023413;28;20478;-57
2022/10/29 09:10:11;;;;;;;12.80;6.20;;;13.30;99.90;;;;;;5041512;28;20439;-57
2022/10/29 09:12:52;;;;;;;19.10;6.20;;;13.40;99.90;;;;;;5030489;28;20406;-57
2022/10/29 09:15:34;;;;;;;14.60;5.97;;;13.50;99.90;;;;;;5036875;28;20479;-58
2022/10/29 09:18:02;;;;;;;11.33;6.20;;;13.70;99.90;;;;;;5027427;28;20510;-57
2022/10/29 09:20:46;;;;;;;18.93;6.23;;;13.80;99.90;;;;;;5026880;28;20454;-55
2022/10/29 09:23:26;;;;;;;15.20;5.90;;;13.90;99.90;;;;;;5028115;28;20988;-57
2022/10/29 09:26:03;;;;;;;14.50;6.53;;;14.00;99.90;;;;;;5030152;28;20420;-55
2022/10/29 09:28:40;;;;;;;10.40;6.10;;;14.20;99.90;;;;;;5036118;28;20446;-57
2022/10/29 09:31:29;;;;;;;16.07;6.03;;;14.30;99.90;;;;;;5036799;28;20522;-56
2022/10/29 09:34:00;;;;;;;18.70;7.00;;;14.40;99.90;;;;;;5021326;28;20435;-55
2022/10/29 09:36:26;;;;;;;14.23;6.30;;;14.50;99.90;;;;;;5017571;28;20415;-57
2022/10/29 09:39:08;;;;;;;13.70;6.43;;;14.60;99.90;;;;;;5026025;28;20727;-57
2022/10/29 09:41:35;;;;;;;12.33;6.60;;;14.70;99.90;;;;;;5030181;28;20214;-56
2022/10/29 09:44:23;;;;;;;20.00;5.63;;;14.80;99.90;;;;;;5026405;28;20466;-56
2022/10/29 09:46:58;;;;;;;16.70;6.47;;;15.00;99.90;;;;;;5030587;28;20941;-56
2022/10/29 09:49:48;;;;;;;12.50;6.10;;;15.10;99.90;;;;;;5032924;28;20964;-57
2022/10/29 09:52:15;;;;;;;14.40;6.10;;;15.20;99.90;;;;;;5028206;28;21344;-56
2022/10/29 09:54:41;;;;;;;16.13;7.63;;;15.30;99.90;;;;;;5033035;28;20593;-56
2022/10/29 09:57:20;;;;;;;16.37;10.03;;;15.50;99.90;;;;;;5043977;28;20525;-57
2022/10/29 09:59:59;;;;;;;26.50;8.20;;;15.60;99.90;;;;;;5020174;28;20454;-56
2022/10/29 10:02:36;;;;;;;21.87;10.97;;;15.70;99.90;;;;;;5016608;28;20867;-57
2022/10/29 10:05:27;;;;;;;35.80;18.20;;;15.90;99.90;;;;;;5034684;28;20504;-57
2022/10/29 10:08:13;;;;;;;40.27;19.80;;;16.00;99.90;;;;;;5018619;28;20438;-56
2022/10/29 10:10:52;;;;;;;38.07;20.40;;;16.10;99.90;;;;;;5030777;28;20451;-56
2022/10/29 10:13:28;;;;;;;31.80;12.43;;;16.20;99.90;;;;;;5024138;28;20454;-56
2022/10/29 10:15:56;;;;;;;15.53;9.17;;;16.30;99.90;;;;;;5009741;28;20490;-57
2022/10/29 10:18:31;;;;;;;20.67;7.80;;;16.40;99.90;;;;;;5030740;28;21023;-56
2022/10/29 10:20:59;;;;;;;14.50;6.90;;;16.60;99.90;;;;;;5066915;22;21007;-60
2022/10/29 10:23:28;;;;;;;13.93;6.93;;;16.70;99.90;;;;;;5082051;28;20552;-62
2022/10/29 10:25:56;;;;;;;18.40;6.27;;;16.90;99.90;;;;;;5084506;28;20400;-61
2022/10/29 10:28:28;;;;;;;16.70;6.20;;;17.10;99.90;;;;;;5081983;28;20440;-61
2022/10/29 10:31:03;;;;;;;15.73;6.63;;;17.20;99.90;;;;;;5076256;28;20939;-61
2022/10/29 10:33:30;;;;;;;10.80;5.53;;;17.40;99.90;;;;;;5062641;28;20439;-60
2022/10/29 10:36:01;;;;;;;12.97;4.97;;;17.50;99.90;;;;;;5078574;28;20426;-60
2022/10/29 10:38:27;;;;;;;17.90;4.97;;;17.70;99.90;;;;;;5065533;28;20428;-61
2022/10/29 10:41:04;;;;;;;15.90;5.13;;;17.90;99.90;;;;;;5076628;28;20456;-61
2022/10/29 10:43:29;;;;;;;18.60;4.97;;;18.00;99.90;;;;;;5070891;28;20461;-61
2022/10/29 10:46:02;;;;;;;18.40;5.43;;;18.10;99.90;;;;;;5058284;28;20947;-61
2022/10/29 10:48:28;;;;;;;13.30;4.63;;;18.20;99.90;;;;;;5069250;28;20201;-60
2022/10/29 10:51:31;;;;;;;23.37;5.40;;;18.30;99.90;;;;;;5090036;28;21208;-60
2022/10/29 10:53:59;;;;;;;20.70;5.07;;;18.50;99.90;;;;;;5015519;28;20182;-62
2022/10/29 10:56:25;;;;;;;10.87;4.73;;;18.60;99.90;;;;;;5045777;28;20947;-61
2022/10/29 10:58:59;;;;;;;10.13;4.13;;;18.70;99.90;;;;;;5052763;28;20430;-61
2022/10/29 11:01:28;;;;;;;17.47;4.20;;;18.80;99.90;;;;;;5063600;28;20194;-61
2022/10/29 11:04:07;;;;;;;13.33;4.50;;;18.80;99.90;;;;;;5065094;28;20495;-60
2022/10/29 11:06:40;;;;;;;15.80;4.77;;;18.90;99.90;;;;;;5063219;28;20413;-61
2022/10/29 11:09:11;;;;;;;11.37;4.73;;;19.00;99.90;;;;;;5065427;28;20439;-61
2022/10/29 11:11:49;;;;;;;15.07;6.23;;;19.20;99.90;;;;;;5065462;28;20452;-62
2022/10/29 11:14:22;;;;;;;10.67;4.67;;;19.40;99.90;;;;;;5083170;28;20539;-61
2022/10/29 11:16:55;;;;;;;15.63;5.33;;;19.70;99.90;;;;;;5065963;28;20443;-62
2022/10/29 11:19:34;;;;;;;14.87;5.10;;;19.90;99.90;;;;;;5061181;28;20428;-61
2022/10/29 11:22:22;;;;;;;16.13;5.57;;;20.20;99.90;;;;;;5067280;28;20587;-60
2022/10/29 11:24:54;;;;;;;14.47;4.43;;;20.40;99.40;;;;;;5062893;28;20877;-64
2022/10/29 11:27:32;;;;;;;13.00;3.63;;;20.70;97.60;;;;;;5084307;28;20411;-61
2022/10/29 11:30:09;;;;;;;16.80;4.47;;;20.90;92.90;;;;;;5074908;28;20448;-63
2022/10/29 11:33:12;;;;;;;12.17;4.30;;;21.20;88.00;;;;;;5064306;28;20548;-61
2022/10/29 11:35:49;;;;;;;11.77;4.40;;;21.60;82.80;;;;;;5053256;28;20433;-61
2022/10/29 11:38:17;;;;;;;12.53;4.20;;;22.00;79.40;;;;;;5048597;28;20746;-62
2022/10/29 11:40:58;;;;;;;13.00;3.83;;;22.30;75.30;;;;;;5062510;28;20821;-62
2022/10/29 11:43:24;;;;;;;12.40;4.47;;;22.70;70.30;;;;;;5079780;28;20454;-62
2022/10/29 11:46:07;;;;;;;14.83;4.37;;;23.10;67.50;;;;;;5078309;28;20423;-62
2022/10/29 11:48:39;;;;;;;10.53;3.90;;;23.40;61.30;;;;;;5070460;28;20174;-63
2022/10/29 11:51:46;;;;;;;15.43;4.47;;;23.80;60.60;;;;;;5062906;28;20428;-63
2022/10/29 11:54:44;;;;;;;10.27;4.00;;;24.20;59.90;;;;;;5044370;28;20481;-62
2022/10/29 11:57:47;;;;;;;9.93;3.90;;;24.70;57.20;;;;;;5061782;28;20175;-63
2022/10/29 12:00:17;;;;;;;9.98;3.38;;;25.10;55.30;;;;;;5063277;28;20170;-62
2022/10/29 12:03:21;;;;;;;12.30;4.70;;;25.30;53.30;;;;;;5059024;28;20174;-62
2022/10/29 12:06:20;;;;;;;13.07;4.07;;;25.70;52.60;;;;;;5064389;28;20177;-62
2022/10/29 12:09:13;;;;;;;14.32;3.55;;;25.90;52.40;;;;;;5051481;28;20171;-62
2022/10/29 12:11:50;;;;;;;14.73;3.83;;;26.10;50.50;;;;;;5056737;28;20202;-62
2022/10/29 12:14:25;;;;;;;11.48;3.90;;;26.20;49.60;;;;;;5059851;28;20185;-62
2022/10/29 12:17:09;;;;;;;16.65;3.95;;;26.30;49.10;;;;;;5056165;28;20253;-62
2022/10/29 12:19:44;;;;;;;7.35;3.53;;;26.50;47.90;;;;;;5070470;28;20188;-62
2022/10/29 12:22:12;;;;;;;7.82;3.53;;;26.60;48.40;;;;;;5078976;28;20232;-61
2022/10/29 12:25:19;;;;;;;13.95;3.63;;;26.80;49.20;;;;;;5067415;28;20288;-63
2022/10/29 12:28:32;;;;;;;10.15;3.70;;;27.00;48.40;;;;;;5048463;28;20171;-63
2022/10/29 12:30:57;;;;;;;13.23;3.67;;;27.10;47.10;;;;;;5016670;28;20206;-63
2022/10/29 12:33:55;;;;;;;17.25;3.38;;;27.10;46.30;;;;;;5065960;28;20273;-63
2022/10/29 12:36:34;;;;;;;11.00;4.32;;;27.00;46.80;;;;;;5057051;28;20660;-63
2022/10/29 12:39:01;;;;;;;11.48;3.75;;;26.80;46.90;;;;;;5062653;28;20691;-62
2022/10/29 12:41:36;;;;;;;11.30;3.40;;;26.50;47.50;;;;;;5076361;28;20221;-63
2022/10/29 12:44:26;;;;;;;14.57;3.67;;;25.90;49.00;;;;;;5069509;28;20194;-62
2022/10/29 12:47:04;;;;;;;11.80;3.38;;;25.30;49.70;;;;;;5051331;28;20221;-61
2022/10/29 12:49:55;;;;;;;14.27;3.78;;;24.80;50.70;;;;;;5068213;28;20194;-62
2022/10/29 12:52:45;;;;;;;11.60;3.63;;;24.20;51.00;;;;;;5084736;28;20539;-60
2022/10/29 12:55:14;;;;;;;14.70;4.17;;;23.80;51.60;;;;;;5068423;28;20229;-62
2022/10/29 12:57:39;;;;;;;10.90;3.70;;;23.60;52.60;;;;;;5070105;28;20173;-63
2022/10/29 13:00:23;;;;;;;13.10;3.77;;;23.40;54.40;;;;;;5067037;28;20188;-61
2022/10/29 13:02:50;;;;;;;15.40;3.20;;;23.40;54.70;;;;;;5073281;28;20176;-61